sensor_id;sensor_type;location;lat;lon;timestamp;pressure;altitude;pressure_sealevel;temperature;humidity
41830;BME280;38614;43.472;23.936;2022-09-21T00:02:39;100332.44;;;8.52;nan
41830;BME280;38614;43.472;23.936;2022-09-21T00:05:27;100340.56;;;8.94;nan
41830;BME280;38614;43.472;23.936;2022-09-21T00:08:15;100330.22;;;9.15;nan
41830;BME280;38614;43.472;23.936;2022-09-21T00:11:06;100332.28;;;9.30;nan
41830;BME280;38614;43.472;23.936;2022-09-21T00:13:57;100352.63;;;9.50;nan
41830;BME280;38614;43.472;23.936;2022-09-21T00:16:48;100346.16;;;9.58;nan
41830;BME280;38614;43.472;23.936;2022-09-21T00:19:36;100334.66;;;9.56;nan
41830;BME280;38614;43.472;23.936;2022-09-21T00:22:24;100342.72;;;9.49;nan
41830;BME280;38614;43.472;23.936;2022-09-21T00:25:14;100335.84;;;9.43;nan
41830;BME280;38614;43.472;23.936;2022-09-21T00:28:01;100341.38;;;9.43;nan
41830;BME280;38614;43.472;23.936;2022-09-21T00:30:49;100343.19;;;9.39;nan
41830;BME280;38614;43.472;23.936;2022-09-21T00:33:39;100344.34;;;9.26;nan
41830;BME280;38614;43.472;23.936;2022-09-21T00:36:27;100343.78;;;9.20;nan
41830;BME280;38614;43.472;23.936;2022-09-21T00:39:15;100328.50;;;9.10;nan
41830;BME280;38614;43.472;23.936;2022-09-21T00:42:09;100336.66;;;9.19;nan
41830;BME280;38614;43.472;23.936;2022-09-21T00:44:57;100338.38;;;9.11;nan
41830;BME280;38614;43.472;23.936;2022-09-21T00:47:49;100327.47;;;9.03;nan
41830;BME280;38614;43.472;23.936;2022-09-21T00:50:43;100345.84;;;8.99;nan
41830;BME280;38614;43.472;23.936;2022-09-21T00:53:34;100339.28;;;8.91;nan
41830;BME280;38614;43.472;23.936;2022-09-21T00:56:23;100337.47;;;8.95;nan
41830;BME280;38614;43.472;23.936;2022-09-21T00:59:12;100333.88;;;8.82;nan
41830;BME280;38614;43.472;23.936;2022-09-21T01:02:04;100332.38;;;8.73;nan
41830;BME280;38614;43.472;23.936;2022-09-21T01:04:52;100329.72;;;8.64;nan
41830;BME280;38614;43.472;23.936;2022-09-21T01:07:44;100335.47;;;8.71;nan
41830;BME280;38614;43.472;23.936;2022-09-21T01:11:10;100327.22;;;8.71;nan
41830;BME280;38614;43.472;23.936;2022-09-21T01:14:25;100329.16;;;8.71;nan
41830;BME280;38614;43.472;23.936;2022-09-21T01:17:26;100310.66;;;8.47;nan
41830;BME280;38614;43.472;23.936;2022-09-21T01:20:44;100325.59;;;8.58;nan
41830;BME280;38614;43.472;23.936;2022-09-21T01:29:58;100329.22;;;8.38;nan
41830;BME280;38614;43.472;23.936;2022-09-21T01:33:05;100331.75;;;8.43;nan
41830;BME280;38614;43.472;23.936;2022-09-21T01:35:59;100328.38;;;8.37;nan
41830;BME280;38614;43.472;23.936;2022-09-21T01:38:49;100298.94;;;8.17;nan
41830;BME280;38614;43.472;23.936;2022-09-21T01:41:40;100329.88;;;8.35;nan
41830;BME280;38614;43.472;23.936;2022-09-21T01:44:33;100313.28;;;8.22;nan
41830;BME280;38614;43.472;23.936;2022-09-21T01:47:22;100314.81;;;8.32;nan
41830;BME280;38614;43.472;23.936;2022-09-21T01:50:13;100320.59;;;8.39;nan
41830;BME280;38614;43.472;23.936;2022-09-21T01:53:12;100324.88;;;8.28;nan
41830;BME280;38614;43.472;23.936;2022-09-21T01:56:21;100317.38;;;8.16;nan
41830;BME280;38614;43.472;23.936;2022-09-21T02:02:19;100296.91;;;7.93;nan
41830;BME280;38614;43.472;23.936;2022-09-21T02:05:10;100311.78;;;8.13;nan
41830;BME280;38614;43.472;23.936;2022-09-21T02:07:59;100279.31;;;7.85;nan
41830;BME280;38614;43.472;23.936;2022-09-21T02:10:50;100318.63;;;8.07;nan
41830;BME280;38614;43.472;23.936;2022-09-21T02:13:42;100312.53;;;8.01;nan
41830;BME280;38614;43.472;23.936;2022-09-21T02:25:55;100326.56;;;7.87;nan
41830;BME280;38614;43.472;23.936;2022-09-21T02:28:55;100334.34;;;7.85;nan
41830;BME280;38614;43.472;23.936;2022-09-21T02:31:55;100338.53;;;7.91;nan
41830;BME280;38614;43.472;23.936;2022-09-21T02:34:58;100326.63;;;7.79;nan
41830;BME280;38614;43.472;23.936;2022-09-21T02:37:53;100333.28;;;7.78;nan
41830;BME280;38614;43.472;23.936;2022-09-21T02:40:50;100317.97;;;7.68;nan
41830;BME280;38614;43.472;23.936;2022-09-21T02:43:48;100337.97;;;7.77;nan
41830;BME280;38614;43.472;23.936;2022-09-21T02:46:58;100336.47;;;7.80;nan
41830;BME280;38614;43.472;23.936;2022-09-21T02:49:51;100300.91;;;7.54;nan
41830;BME280;38614;43.472;23.936;2022-09-21T02:52:41;100304.28;;;7.59;nan
41830;BME280;38614;43.472;23.936;2022-09-21T02:55:32;100322.63;;;7.55;nan
41830;BME280;38614;43.472;23.936;2022-09-21T02:58:21;100339.19;;;7.67;nan
41830;BME280;38614;43.472;23.936;2022-09-21T03:01:12;100336.47;;;7.80;nan
41830;BME280;38614;43.472;23.936;2022-09-21T03:04:01;100324.91;;;7.74;nan
41830;BME280;38614;43.472;23.936;2022-09-21T03:06:49;100326.22;;;7.68;nan
41830;BME280;38614;43.472;23.936;2022-09-21T03:09:39;100340.09;;;7.71;nan
41830;BME280;38614;43.472;23.936;2022-09-21T03:12:27;100325.69;;;7.75;nan
41830;BME280;38614;43.472;23.936;2022-09-21T03:15:16;100356.59;;;7.71;nan
41830;BME280;38614;43.472;23.936;2022-09-21T03:18:05;100334.47;;;7.68;nan
41830;BME280;38614;43.472;23.936;2022-09-21T03:20:53;100346.81;;;7.62;nan
41830;BME280;38614;43.472;23.936;2022-09-21T03:23:42;100349.91;;;7.60;nan
41830;BME280;38614;43.472;23.936;2022-09-21T03:26:30;100319.59;;;7.48;nan
41830;BME280;38614;43.472;23.936;2022-09-21T03:29:22;100344.13;;;7.53;nan
41830;BME280;38614;43.472;23.936;2022-09-21T03:32:10;100344.91;;;7.54;nan
41830;BME280;38614;43.472;23.936;2022-09-21T03:34:58;100330.13;;;7.46;nan
41830;BME280;38614;43.472;23.936;2022-09-21T03:37:46;100355.00;;;7.70;nan
41830;BME280;38614;43.472;23.936;2022-09-21T03:40:35;100344.69;;;7.67;nan
41830;BME280;38614;43.472;23.936;2022-09-21T03:43:23;100341.59;;;7.69;nan
41830;BME280;38614;43.472;23.936;2022-09-21T03:46:11;100341.94;;;7.67;nan
41830;BME280;38614;43.472;23.936;2022-09-21T03:48:59;100351.50;;;7.61;nan
41830;BME280;38614;43.472;23.936;2022-09-21T03:51:47;100347.41;;;7.47;nan
41830;BME280;38614;43.472;23.936;2022-09-21T03:54:35;100352.91;;;7.47;nan
41830;BME280;38614;43.472;23.936;2022-09-21T03:57:24;100361.75;;;7.52;nan
41830;BME280;38614;43.472;23.936;2022-09-21T04:00:12;100347.47;;;7.38;nan
41830;BME280;38614;43.472;23.936;2022-09-21T04:03:01;100361.06;;;7.34;nan
41830;BME280;38614;43.472;23.936;2022-09-21T04:05:49;100362.41;;;7.28;nan
41830;BME280;38614;43.472;23.936;2022-09-21T04:08:37;100348.78;;;7.32;nan
41830;BME280;38614;43.472;23.936;2022-09-21T04:11:25;100359.44;;;7.33;nan
41830;BME280;38614;43.472;23.936;2022-09-21T04:14:13;100290.50;;;6.88;nan
41830;BME280;38614;43.472;23.936;2022-09-21T04:17:00;100368.66;;;7.37;nan
41830;BME280;38614;43.472;23.936;2022-09-21T04:19:49;100277.81;;;6.75;nan
41830;BME280;38614;43.472;23.936;2022-09-21T04:22:37;100381.72;;;7.40;nan
41830;BME280;38614;43.472;23.936;2022-09-21T04:25:29;100375.28;;;7.36;nan
41830;BME280;38614;43.472;23.936;2022-09-21T04:28:18;100364.97;;;7.25;nan
41830;BME280;38614;43.472;23.936;2022-09-21T04:31:08;100371.75;;;7.36;nan
41830;BME280;38614;43.472;23.936;2022-09-21T04:33:56;100372.25;;;7.29;nan
41830;BME280;38614;43.472;23.936;2022-09-21T04:36:44;100375.59;;;7.35;nan
41830;BME280;38614;43.472;23.936;2022-09-21T04:39:33;100370.94;;;7.35;nan
41830;BME280;38614;43.472;23.936;2022-09-21T04:42:21;100376.09;;;7.37;nan
41830;BME280;38614;43.472;23.936;2022-09-21T04:45:09;100355.56;;;7.34;nan
41830;BME280;38614;43.472;23.936;2022-09-21T04:47:58;100384.44;;;7.49;nan
41830;BME280;38614;43.472;23.936;2022-09-21T04:50:49;100379.31;;;7.39;nan
41830;BME280;38614;43.472;23.936;2022-09-21T04:53:39;100353.00;;;7.29;nan
41830;BME280;38614;43.472;23.936;2022-09-21T04:56:27;100380.94;;;7.61;nan
41830;BME280;38614;43.472;23.936;2022-09-21T04:59:14;100382.31;;;7.76;nan
41830;BME280;38614;43.472;23.936;2022-09-21T05:02:02;100378.03;;;7.87;nan
41830;BME280;38614;43.472;23.936;2022-09-21T05:04:50;100378.50;;;7.89;nan
41830;BME280;38614;43.472;23.936;2022-09-21T05:07:37;100384.53;;;8.03;nan
41830;BME280;38614;43.472;23.936;2022-09-21T05:10:25;100379.81;;;8.24;nan
41830;BME280;38614;43.472;23.936;2022-09-21T05:13:13;100380.75;;;8.49;nan
41830;BME280;38614;43.472;23.936;2022-09-21T05:16:05;100370.22;;;8.51;nan
41830;BME280;38614;43.472;23.936;2022-09-21T05:18:53;100362.09;;;8.67;nan
41830;BME280;38614;43.472;23.936;2022-09-21T05:21:43;100365.38;;;9.06;nan
41830;BME280;38614;43.472;23.936;2022-09-21T05:24:34;100357.31;;;9.37;nan
41830;BME280;38614;43.472;23.936;2022-09-21T05:27:22;100368.56;;;9.69;nan
41830;BME280;38614;43.472;23.936;2022-09-21T05:30:10;100355.44;;;9.78;nan
41830;BME280;38614;43.472;23.936;2022-09-21T05:33:01;100366.63;;;10.10;nan
41830;BME280;38614;43.472;23.936;2022-09-21T05:39:15;100359.16;;;10.82;nan
41830;BME280;38614;43.472;23.936;2022-09-21T05:42:03;100357.56;;;11.12;nan
41830;BME280;38614;43.472;23.936;2022-09-21T05:44:51;100367.03;;;11.62;nan
41830;BME280;38614;43.472;23.936;2022-09-21T05:47:55;100366.13;;;11.39;nan
41830;BME280;38614;43.472;23.936;2022-09-21T05:51:26;100368.59;;;11.79;nan
41830;BME280;38614;43.472;23.936;2022-09-21T06:04:18;100365.78;;;12.72;nan
41830;BME280;38614;43.472;23.936;2022-09-21T06:07:05;100340.81;;;12.49;nan
41830;BME280;38614;43.472;23.936;2022-09-21T06:09:53;100364.50;;;12.66;nan
41830;BME280;38614;43.472;23.936;2022-09-21T06:12:41;100377.56;;;12.66;nan
41830;BME280;38614;43.472;23.936;2022-09-21T06:15:29;100363.09;;;12.76;nan
41830;BME280;38614;43.472;23.936;2022-09-21T06:18:17;100368.72;;;12.83;nan
41830;BME280;38614;43.472;23.936;2022-09-21T06:21:05;100359.63;;;12.82;nan
41830;BME280;38614;43.472;23.936;2022-09-21T06:23:53;100377.63;;;13.15;nan
41830;BME280;38614;43.472;23.936;2022-09-21T06:26:41;100383.75;;;13.24;nan
41830;BME280;38614;43.472;23.936;2022-09-21T06:29:29;100387.94;;;13.15;nan
41830;BME280;38614;43.472;23.936;2022-09-21T06:32:16;100383.97;;;13.16;nan
41830;BME280;38614;43.472;23.936;2022-09-21T06:35:07;100400.00;;;13.22;nan
41830;BME280;38614;43.472;23.936;2022-09-21T06:38:02;100400.47;;;13.28;nan
41830;BME280;38614;43.472;23.936;2022-09-21T06:40:54;100408.19;;;13.19;nan
41830;BME280;38614;43.472;23.936;2022-09-21T06:43:45;100393.47;;;13.15;nan
41830;BME280;38614;43.472;23.936;2022-09-21T06:46:32;100383.81;;;13.05;nan
41830;BME280;38614;43.472;23.936;2022-09-21T06:49:20;100407.59;;;13.29;nan
41830;BME280;38614;43.472;23.936;2022-09-21T06:52:08;100405.50;;;13.45;nan
41830;BME280;38614;43.472;23.936;2022-09-21T06:54:59;100410.38;;;13.52;nan
41830;BME280;38614;43.472;23.936;2022-09-21T06:57:47;100407.97;;;13.50;nan
41830;BME280;38614;43.472;23.936;2022-09-21T07:00:39;100395.88;;;13.39;nan
41830;BME280;38614;43.472;23.936;2022-09-21T07:03:32;100417.72;;;13.67;nan
41830;BME280;38614;43.472;23.936;2022-09-21T07:06:20;100402.34;;;14.00;nan
41830;BME280;38614;43.472;23.936;2022-09-21T07:09:11;100413.09;;;14.31;nan
41830;BME280;38614;43.472;23.936;2022-09-21T07:12:18;100397.25;;;14.65;nan
41830;BME280;38614;43.472;23.936;2022-09-21T07:15:07;100400.03;;;14.35;nan
41830;BME280;38614;43.472;23.936;2022-09-21T07:17:56;100398.78;;;14.29;nan
41830;BME280;38614;43.472;23.936;2022-09-21T07:20:57;100408.91;;;14.44;nan
41830;BME280;38614;43.472;23.936;2022-09-21T07:23:45;100416.13;;;14.49;nan
41830;BME280;38614;43.472;23.936;2022-09-21T07:26:37;100422.06;;;14.47;nan
41830;BME280;38614;43.472;23.936;2022-09-21T07:29:25;100422.53;;;14.53;nan
41830;BME280;38614;43.472;23.936;2022-09-21T07:32:13;100404.66;;;14.54;nan
41830;BME280;38614;43.472;23.936;2022-09-21T07:35:01;100424.94;;;14.54;nan
41830;BME280;38614;43.472;23.936;2022-09-21T07:37:49;100410.16;;;14.50;nan
41830;BME280;38614;43.472;23.936;2022-09-21T07:40:36;100362.28;;;14.01;nan
41830;BME280;38614;43.472;23.936;2022-09-21T07:43:24;100409.66;;;14.11;nan
41830;BME280;38614;43.472;23.936;2022-09-21T07:46:15;100389.00;;;14.76;nan
41830;BME280;38614;43.472;23.936;2022-09-21T07:49:02;100410.84;;;15.59;nan
41830;BME280;38614;43.472;23.936;2022-09-21T07:51:52;100411.78;;;15.74;nan
41830;BME280;38614;43.472;23.936;2022-09-21T07:54:40;100393.34;;;16.20;nan
41830;BME280;38614;43.472;23.936;2022-09-21T07:57:28;100416.72;;;16.85;nan
41830;BME280;38614;43.472;23.936;2022-09-21T08:00:35;100407.88;;;16.69;nan
41830;BME280;38614;43.472;23.936;2022-09-21T08:03:23;100395.41;;;16.45;nan
41830;BME280;38614;43.472;23.936;2022-09-21T08:06:11;100408.34;;;16.89;nan
41830;BME280;38614;43.472;23.936;2022-09-21T08:09:02;100409.53;;;16.88;nan
41830;BME280;38614;43.472;23.936;2022-09-21T08:11:53;100387.97;;;16.77;nan
41830;BME280;38614;43.472;23.936;2022-09-21T08:14:45;100398.38;;;16.88;nan
41830;BME280;38614;43.472;23.936;2022-09-21T08:17:33;100419.56;;;17.42;nan
41830;BME280;38614;43.472;23.936;2022-09-21T08:20:28;100376.06;;;17.37;nan
41830;BME280;38614;43.472;23.936;2022-09-21T08:23:16;100403.19;;;17.33;nan
41830;BME280;38614;43.472;23.936;2022-09-21T08:26:05;100401.22;;;17.73;nan
41830;BME280;38614;43.472;23.936;2022-09-21T08:28:54;100388.00;;;17.77;nan
41830;BME280;38614;43.472;23.936;2022-09-21T08:31:47;100396.00;;;17.36;nan
41830;BME280;38614;43.472;23.936;2022-09-21T08:34:42;100401.56;;;18.00;nan
41830;BME280;38614;43.472;23.936;2022-09-21T08:37:33;100393.59;;;17.84;nan
41830;BME280;38614;43.472;23.936;2022-09-21T08:40:31;100385.94;;;18.10;nan
41830;BME280;38614;43.472;23.936;2022-09-21T08:43:41;100369.13;;;18.24;nan
41830;BME280;38614;43.472;23.936;2022-09-21T08:46:32;100387.53;;;18.11;nan
41830;BME280;38614;43.472;23.936;2022-09-21T08:49:25;100364.09;;;16.98;nan
41830;BME280;38614;43.472;23.936;2022-09-21T08:52:17;100386.81;;;17.21;nan
41830;BME280;38614;43.472;23.936;2022-09-21T08:55:12;100377.25;;;17.72;nan
41830;BME280;38614;43.472;23.936;2022-09-21T08:58:21;100370.22;;;18.41;nan
41830;BME280;38614;43.472;23.936;2022-09-21T09:07:55;100370.91;;;18.73;nan
41830;BME280;38614;43.472;23.936;2022-09-21T09:17:46;100370.06;;;17.75;nan
41830;BME280;38614;43.472;23.936;2022-09-21T09:20:42;100354.41;;;18.06;nan
41830;BME280;38614;43.472;23.936;2022-09-21T09:23:37;100368.28;;;18.34;nan
41830;BME280;38614;43.472;23.936;2022-09-21T09:30:17;100348.06;;;17.66;nan
41830;BME280;38614;43.472;23.936;2022-09-21T09:33:13;100354.84;;;17.97;nan
41830;BME280;38614;43.472;23.936;2022-09-21T09:36:10;100321.78;;;17.03;nan
41830;BME280;38614;43.472;23.936;2022-09-21T09:39:08;100334.44;;;16.43;nan
41830;BME280;38614;43.472;23.936;2022-09-21T09:43:00;100351.31;;;17.18;nan
41830;BME280;38614;43.472;23.936;2022-09-21T09:51:19;100325.44;;;19.07;nan
41830;BME280;38614;43.472;23.936;2022-09-21T09:54:13;100338.16;;;18.63;nan
41830;BME280;38614;43.472;23.936;2022-09-21T09:57:03;100324.41;;;18.13;nan
41830;BME280;38614;43.472;23.936;2022-09-21T09:59:53;100336.50;;;17.75;nan
41830;BME280;38614;43.472;23.936;2022-09-21T10:02:48;100335.75;;;17.10;nan
41830;BME280;38614;43.472;23.936;2022-09-21T10:05:39;100333.38;;;17.01;nan
41830;BME280;38614;43.472;23.936;2022-09-21T10:08:41;100305.41;;;16.59;nan
41830;BME280;38614;43.472;23.936;2022-09-21T10:11:36;100292.66;;;16.58;nan
41830;BME280;38614;43.472;23.936;2022-09-21T10:14:27;100312.63;;;17.20;nan
41830;BME280;38614;43.472;23.936;2022-09-21T10:17:16;100322.50;;;17.85;nan
41830;BME280;38614;43.472;23.936;2022-09-21T10:20:15;100317.72;;;18.70;nan
41830;BME280;38614;43.472;23.936;2022-09-21T10:23:18;100308.25;;;19.08;nan
41830;BME280;38614;43.472;23.936;2022-09-21T10:26:11;100313.38;;;18.58;nan
41830;BME280;38614;43.472;23.936;2022-09-21T10:29:15;100297.97;;;18.29;nan
41830;BME280;38614;43.472;23.936;2022-09-21T10:38:19;100307.28;;;18.77;nan
41830;BME280;38614;43.472;23.936;2022-09-21T10:41:10;100310.63;;;19.51;nan
41830;BME280;38614;43.472;23.936;2022-09-21T10:44:01;100309.63;;;19.76;nan
41830;BME280;38614;43.472;23.936;2022-09-21T10:46:49;100313.09;;;19.87;nan
41830;BME280;38614;43.472;23.936;2022-09-21T10:49:46;100304.59;;;20.25;nan
41830;BME280;38614;43.472;23.936;2022-09-21T10:52:37;100304.94;;;20.30;nan
41830;BME280;38614;43.472;23.936;2022-09-21T10:55:29;100289.97;;;19.38;nan
41830;BME280;38614;43.472;23.936;2022-09-21T10:58:18;100301.19;;;19.34;nan
41830;BME280;38614;43.472;23.936;2022-09-21T11:01:12;100290.06;;;18.79;nan
41830;BME280;38614;43.472;23.936;2022-09-21T11:04:05;100281.03;;;18.54;nan
41830;BME280;38614;43.472;23.936;2022-09-21T11:10:27;100256.34;;;17.43;nan
41830;BME280;38614;43.472;23.936;2022-09-21T11:19:40;100277.94;;;18.37;nan
41830;BME280;38614;43.472;23.936;2022-09-21T11:22:48;100272.13;;;18.07;nan
41830;BME280;38614;43.472;23.936;2022-09-21T11:26:01;100253.81;;;17.91;nan
41830;BME280;38614;43.472;23.936;2022-09-21T11:30:13;100267.25;;;18.84;nan
41830;BME280;38614;43.472;23.936;2022-09-21T11:39:36;100239.66;;;18.83;nan
41830;BME280;38614;43.472;23.936;2022-09-21T11:45:51;100263.00;;;17.85;nan
41830;BME280;38614;43.472;23.936;2022-09-21T11:52:08;100253.78;;;17.99;nan
41830;BME280;38614;43.472;23.936;2022-09-21T12:14:35;100242.38;;;18.34;nan
41830;BME280;38614;43.472;23.936;2022-09-21T12:24:31;100226.59;;;18.06;nan
41830;BME280;38614;43.472;23.936;2022-09-21T12:27:39;100239.28;;;18.81;nan
41830;BME280;38614;43.472;23.936;2022-09-21T12:30:28;100234.00;;;18.90;nan
41830;BME280;38614;43.472;23.936;2022-09-21T12:33:44;100239.91;;;18.99;nan
41830;BME280;38614;43.472;23.936;2022-09-21T12:36:41;100227.69;;;18.78;nan
41830;BME280;38614;43.472;23.936;2022-09-21T12:39:38;100244.03;;;18.28;nan
41830;BME280;38614;43.472;23.936;2022-09-21T12:42:29;100257.09;;;17.61;nan
41830;BME280;38614;43.472;23.936;2022-09-21T12:45:27;100247.63;;;17.13;nan
41830;BME280;38614;43.472;23.936;2022-09-21T12:48:42;100250.84;;;16.86;nan
41830;BME280;38614;43.472;23.936;2022-09-21T12:51:38;100244.84;;;16.66;nan
41830;BME280;38614;43.472;23.936;2022-09-21T13:10:54;100257.16;;;16.65;nan
41830;BME280;38614;43.472;23.936;2022-09-21T13:16:34;100244.81;;;16.63;nan
41830;BME280;38614;43.472;23.936;2022-09-21T13:19:25;100251.63;;;16.72;nan
41830;BME280;38614;43.472;23.936;2022-09-21T13:25:23;100259.59;;;16.77;nan
41830;BME280;38614;43.472;23.936;2022-09-21T13:42:48;100257.94;;;16.34;nan
41830;BME280;38614;43.472;23.936;2022-09-21T13:48:27;100274.19;;;16.07;nan
41830;BME280;38614;43.472;23.936;2022-09-21T13:51:15;100265.00;;;15.92;nan
41830;BME280;38614;43.472;23.936;2022-09-21T13:53:44;100257.44;;;15.92;nan
41830;BME280;38614;43.472;23.936;2022-09-21T13:56:32;100279.34;;;16.01;nan
41830;BME280;38614;43.472;23.936;2022-09-21T13:59:23;100254.13;;;15.73;nan
41830;BME280;38614;43.472;23.936;2022-09-21T14:02:30;100270.84;;;15.73;nan
41830;BME280;38614;43.472;23.936;2022-09-21T14:05:39;100283.44;;;15.52;nan
41830;BME280;38614;43.472;23.936;2022-09-21T14:08:31;100277.22;;;15.66;nan
41830;BME280;38614;43.472;23.936;2022-09-21T14:11:41;100276.69;;;15.46;nan
41830;BME280;38614;43.472;23.936;2022-09-21T14:14:33;100279.81;;;15.41;nan
41830;BME280;38614;43.472;23.936;2022-09-21T14:17:37;100285.84;;;15.50;nan
41830;BME280;38614;43.472;23.936;2022-09-21T14:20:27;100281.34;;;15.28;nan
41830;BME280;38614;43.472;23.936;2022-09-21T14:26:34;100280.03;;;15.15;nan
41830;BME280;38614;43.472;23.936;2022-09-21T14:32:19;100278.84;;;15.16;nan
41830;BME280;38614;43.472;23.936;2022-09-21T14:35:17;100286.66;;;15.54;nan
41830;BME280;38614;43.472;23.936;2022-09-21T14:38:28;100288.00;;;15.75;nan
41830;BME280;38614;43.472;23.936;2022-09-21T14:41:21;100283.63;;;15.77;nan
41830;BME280;38614;43.472;23.936;2022-09-21T14:44:21;100272.88;;;15.79;nan
41830;BME280;38614;43.472;23.936;2022-09-21T14:50:21;100292.78;;;15.74;nan
41830;BME280;38614;43.472;23.936;2022-09-21T14:56:18;100292.31;;;15.65;nan
41830;BME280;38614;43.472;23.936;2022-09-21T14:59:39;100290.34;;;15.69;nan
41830;BME280;38614;43.472;23.936;2022-09-21T15:02:33;100290.72;;;15.64;nan
41830;BME280;38614;43.472;23.936;2022-09-21T15:11:30;100277.75;;;15.31;nan
41830;BME280;38614;43.472;23.936;2022-09-21T15:14:36;100291.34;;;15.43;nan
41830;BME280;38614;43.472;23.936;2022-09-21T15:17:31;100228.13;;;14.81;nan
41830;BME280;38614;43.472;23.936;2022-09-21T15:20:21;100291.16;;;15.11;nan
41830;BME280;38614;43.472;23.936;2022-09-21T15:23:17;100289.47;;;14.99;nan
41830;BME280;38614;43.472;23.936;2022-09-21T15:26:09;100246.88;;;14.47;nan
41830;BME280;38614;43.472;23.936;2022-09-21T15:29:03;100285.19;;;14.65;nan
41830;BME280;38614;43.472;23.936;2022-09-21T15:31:59;100296.16;;;14.50;nan
41830;BME280;38614;43.472;23.936;2022-09-21T15:34:47;100302.97;;;14.53;nan
41830;BME280;38614;43.472;23.936;2022-09-21T15:37:44;100293.56;;;14.31;nan
41830;BME280;38614;43.472;23.936;2022-09-21T15:40:45;100309.84;;;14.33;nan
41830;BME280;38614;43.472;23.936;2022-09-21T15:43:33;100308.63;;;14.30;nan
41830;BME280;38614;43.472;23.936;2022-09-21T15:46:21;100312.81;;;14.13;nan
41830;BME280;38614;43.472;23.936;2022-09-21T15:49:11;100318.41;;;14.17;nan
41830;BME280;38614;43.472;23.936;2022-09-21T15:52:22;100307.75;;;13.89;nan
41830;BME280;38614;43.472;23.936;2022-09-21T15:55:18;100329.53;;;14.17;nan
41830;BME280;38614;43.472;23.936;2022-09-21T15:58:36;100328.63;;;14.06;nan
41830;BME280;38614;43.472;23.936;2022-09-21T16:01:26;100328.41;;;13.91;nan
41830;BME280;38614;43.472;23.936;2022-09-21T16:04:17;100338.00;;;13.67;nan
41830;BME280;38614;43.472;23.936;2022-09-21T16:07:06;100339.25;;;13.70;nan
41830;BME280;38614;43.472;23.936;2022-09-21T16:13:22;100334.28;;;13.56;nan
41830;BME280;38614;43.472;23.936;2022-09-21T16:17:06;100346.56;;;13.55;nan
41830;BME280;38614;43.472;23.936;2022-09-21T16:20:17;100338.22;;;13.55;nan
41830;BME280;38614;43.472;23.936;2022-09-21T16:23:12;100342.03;;;13.44;nan
41830;BME280;38614;43.472;23.936;2022-09-21T16:26:00;100346.72;;;13.39;nan
41830;BME280;38614;43.472;23.936;2022-09-21T16:28:55;100336.97;;;13.23;nan
41830;BME280;38614;43.472;23.936;2022-09-21T16:31:44;100342.13;;;13.24;nan
41830;BME280;38614;43.472;23.936;2022-09-21T16:34:36;100343.91;;;13.13;nan
41830;BME280;38614;43.472;23.936;2022-09-21T16:37:27;100340.59;;;13.04;nan
41830;BME280;38614;43.472;23.936;2022-09-21T16:40:18;100336.34;;;12.87;nan
41830;BME280;38614;43.472;23.936;2022-09-21T16:45:54;100333.72;;;12.75;nan
41830;BME280;38614;43.472;23.936;2022-09-21T16:48:43;100335.69;;;12.51;nan
41830;BME280;38614;43.472;23.936;2022-09-21T16:51:31;100345.19;;;12.73;nan
41830;BME280;38614;43.472;23.936;2022-09-21T16:54:19;100322.50;;;12.45;nan
41830;BME280;38614;43.472;23.936;2022-09-21T16:57:13;100361.56;;;12.59;nan
41830;BME280;38614;43.472;23.936;2022-09-21T17:00:09;100353.13;;;12.52;nan
41830;BME280;38614;43.472;23.936;2022-09-21T17:02:57;100367.16;;;12.40;nan
41830;BME280;38614;43.472;23.936;2022-09-21T17:05:45;100364.81;;;12.42;nan
41830;BME280;38614;43.472;23.936;2022-09-21T17:08:33;100346.44;;;12.14;nan
41830;BME280;38614;43.472;23.936;2022-09-21T17:11:20;100365.47;;;12.35;nan
41830;BME280;38614;43.472;23.936;2022-09-21T17:14:11;100377.13;;;12.25;nan
41830;BME280;38614;43.472;23.936;2022-09-21T17:17:06;100384.63;;;12.24;nan
41830;BME280;38614;43.472;23.936;2022-09-21T17:19:57;100381.50;;;12.26;nan
41830;BME280;38614;43.472;23.936;2022-09-21T17:22:48;100345.44;;;12.03;nan
41830;BME280;38614;43.472;23.936;2022-09-21T17:25:37;100374.50;;;12.13;nan
41830;BME280;38614;43.472;23.936;2022-09-21T17:28:25;100366.56;;;12.11;nan
41830;BME280;38614;43.472;23.936;2022-09-21T17:31:16;100381.50;;;12.07;nan
41830;BME280;38614;43.472;23.936;2022-09-21T17:34:08;100392.88;;;12.02;nan
41830;BME280;38614;43.472;23.936;2022-09-21T17:36:58;100393.91;;;12.13;nan
41830;BME280;38614;43.472;23.936;2022-09-21T17:39:46;100386.41;;;12.13;nan
41830;BME280;38614;43.472;23.936;2022-09-21T17:42:38;100404.88;;;12.09;nan
41830;BME280;38614;43.472;23.936;2022-09-21T17:45:38;100406.53;;;12.10;nan
41830;BME280;38614;43.472;23.936;2022-09-21T17:48:33;100393.00;;;12.09;nan
41830;BME280;38614;43.472;23.936;2022-09-21T17:51:21;100405.34;;;12.11;nan
41830;BME280;38614;43.472;23.936;2022-09-21T17:54:29;100391.03;;;11.90;nan
41830;BME280;38614;43.472;23.936;2022-09-21T18:03:24;100421.88;;;12.08;nan
41830;BME280;38614;43.472;23.936;2022-09-21T18:06:12;100426.63;;;12.07;nan
41830;BME280;38614;43.472;23.936;2022-09-21T18:09:01;100422.97;;;12.03;nan
41830;BME280;38614;43.472;23.936;2022-09-21T18:11:53;100436.25;;;12.13;nan
41830;BME280;38614;43.472;23.936;2022-09-21T18:18:01;100429.16;;;11.96;nan
41830;BME280;38614;43.472;23.936;2022-09-21T18:21:04;100411.56;;;11.89;nan
41830;BME280;38614;43.472;23.936;2022-09-21T18:27:04;100417.63;;;11.79;nan
41830;BME280;38614;43.472;23.936;2022-09-21T18:29:52;100423.19;;;11.79;nan
41830;BME280;38614;43.472;23.936;2022-09-21T18:32:56;100440.44;;;11.88;nan